Allenwood, New York
Current Conditions -  °F | °C
As of 4:51 PM on Tuesday 21 Oct 2014 (Local Time) from KLGA Reporting Station
Few Clouds Few Clouds  
Wind Chill: 65°   Ceiling: Unl
Heat Index: 65°   Visibility: 10mi
Dew Point: 53°   Wind: 12mph
Humidity: 65%   Direction: 90°E
Pressure: 29.82"   Gusts: 20mph
Location:  40.786°N, 73.7291°W
Report Text: KLGA 212051Z 09010G17KT 10SM FEW023 18/12 A2982 RMK AO2 SLP099 T01830117 56005
Loading
Personal Weather Stations






























Interactive Weather Map
Tropical Storm Tracking
New forecast layout! Learn more

10-Day Weather Forecast

Advertisements
Track Severe Weather on mobile